sensor_id;sensor_type;location;lat;lon;timestamp;pressure;altitude;pressure_sealevel;temperature;humidity
43701;BME280;58809;47.984;7.964;2023-05-02T00:01:17;97367.53;;;10.07;100.00
43701;BME280;58809;47.984;7.964;2023-05-02T00:04:19;97377.63;;;10.03;100.00
43701;BME280;58809;47.984;7.964;2023-05-02T00:07:21;97367.69;;;10.05;100.00
43701;BME280;58809;47.984;7.964;2023-05-02T00:10:23;97373.63;;;10.07;100.00
43701;BME280;58809;47.984;7.964;2023-05-02T00:13:24;97377.63;;;10.03;100.00
43701;BME280;58809;47.984;7.964;2023-05-02T00:16:26;97371.88;;;9.99;100.00
43701;BME280;58809;47.984;7.964;2023-05-02T00:19:27;97377.97;;;10.00;100.00
43701;BME280;58809;47.984;7.964;2023-05-02T00:22:29;97365.75;;;9.99;100.00
43701;BME280;58809;47.984;7.964;2023-05-02T00:25:30;97369.06;;;10.01;100.00
43701;BME280;58809;47.984;7.964;2023-05-02T00:28:32;97374.81;;;10.05;100.00
43701;BME280;58809;47.984;7.964;2023-05-02T00:31:33;97384.75;;;10.02;100.00
43701;BME280;58809;47.984;7.964;2023-05-02T00:34:36;97372.22;;;9.96;100.00
43701;BME280;58809;47.984;7.964;2023-05-02T00:37:37;97378.34;;;9.97;100.00
43701;BME280;58809;47.984;7.964;2023-05-02T00:40:46;97391.06;;;9.93;100.00
43701;BME280;58809;47.984;7.964;2023-05-02T00:43:48;97392.19;;;9.99;100.00
43701;BME280;58809;47.984;7.964;2023-05-02T00:46:50;97387.88;;;10.06;100.00
43701;BME280;58809;47.984;7.964;2023-05-02T00:49:53;97385.88;;;10.08;100.00
43701;BME280;58809;47.984;7.964;2023-05-02T00:52:54;97392.16;;;10.07;100.00
43701;BME280;58809;47.984;7.964;2023-05-02T00:55:59;97382.69;;;10.13;100.00
43701;BME280;58809;47.984;7.964;2023-05-02T00:59:03;97394.13;;;10.13;100.00
43701;BME280;58809;47.984;7.964;2023-05-02T01:05:33;97386.34;;;10.12;100.00
43701;BME280;58809;47.984;7.964;2023-05-02T01:08:45;97388.34;;;10.10;100.00
43701;BME280;58809;47.984;7.964;2023-05-02T01:12:05;97392.16;;;10.07;100.00
43701;BME280;58809;47.984;7.964;2023-05-02T01:15:16;97395.50;;;10.01;100.00
43701;BME280;58809;47.984;7.964;2023-05-02T01:18:21;97391.50;;;10.05;100.00
43701;BME280;58809;47.984;7.964;2023-05-02T01:21:24;97395.16;;;10.04;100.00
43701;BME280;58809;47.984;7.964;2023-05-02T01:24:31;97390.19;;;10.01;100.00
43701;BME280;58809;47.984;7.964;2023-05-02T01:31:09;97399.78;;;10.02;100.00
43701;BME280;58809;47.984;7.964;2023-05-02T01:34:12;97398.63;;;10.05;100.00
43701;BME280;58809;47.984;7.964;2023-05-02T01:37:14;97402.78;;;9.99;100.00
43701;BME280;58809;47.984;7.964;2023-05-02T01:40:19;97396.47;;;10.00;100.00
43701;BME280;58809;47.984;7.964;2023-05-02T01:43:22;97406.06;;;10.01;100.00
43701;BME280;58809;47.984;7.964;2023-05-02T01:46:26;97407.03;;;10.00;100.00
43701;BME280;58809;47.984;7.964;2023-05-02T01:49:32;97403.75;;;9.98;100.00
43701;BME280;58809;47.984;7.964;2023-05-02T01:52:35;97402.44;;;10.02;100.00
43701;BME280;58809;47.984;7.964;2023-05-02T01:55:38;97413.00;;;10.02;100.00
43701;BME280;58809;47.984;7.964;2023-05-02T01:58:42;97398.47;;;9.98;100.00
43701;BME280;58809;47.984;7.964;2023-05-02T02:01:44;97397.50;;;9.99;100.00
43701;BME280;58809;47.984;7.964;2023-05-02T02:04:47;97405.09;;;9.94;100.00
43701;BME280;58809;47.984;7.964;2023-05-02T02:07:49;97408.41;;;9.96;100.00
43701;BME280;58809;47.984;7.964;2023-05-02T02:10:56;97409.03;;;9.98;100.00
43701;BME280;58809;47.984;7.964;2023-05-02T02:14:05;97403.59;;;9.99;100.00
43701;BME280;58809;47.984;7.964;2023-05-02T02:17:12;97410.38;;;9.94;100.00
43701;BME280;58809;47.984;7.964;2023-05-02T02:20:16;97404.94;;;9.87;100.00
43701;BME280;58809;47.984;7.964;2023-05-02T02:23:20;97405.81;;;9.88;100.00
43701;BME280;58809;47.984;7.964;2023-05-02T02:26:23;97409.91;;;9.90;100.00
43701;BME280;58809;47.984;7.964;2023-05-02T02:29:25;97413.69;;;9.96;100.00
43701;BME280;58809;47.984;7.964;2023-05-02T02:32:26;97410.38;;;10.02;100.00
43701;BME280;58809;47.984;7.964;2023-05-02T02:35:34;97407.56;;;9.95;100.00
43701;BME280;58809;47.984;7.964;2023-05-02T02:38:45;97418.31;;;9.94;100.00
43701;BME280;58809;47.984;7.964;2023-05-02T02:42:30;97414.22;;;9.91;100.00
43701;BME280;58809;47.984;7.964;2023-05-02T02:45:35;97414.72;;;9.87;100.00
43701;BME280;58809;47.984;7.964;2023-05-02T02:55:37;97423.84;;;9.76;100.00
43701;BME280;58809;47.984;7.964;2023-05-02T02:58:47;97426.16;;;9.71;100.00
43701;BME280;58809;47.984;7.964;2023-05-02T03:02:04;97433.44;;;9.69;100.00
43701;BME280;58809;47.984;7.964;2023-05-02T03:05:08;97432.47;;;9.61;100.00
43701;BME280;58809;47.984;7.964;2023-05-02T03:08:10;97433.31;;;9.62;100.00
43701;BME280;58809;47.984;7.964;2023-05-02T03:11:12;97438.22;;;9.65;100.00
43701;BME280;58809;47.984;7.964;2023-05-02T03:14:14;97431.94;;;9.74;100.00
43701;BME280;58809;47.984;7.964;2023-05-02T03:17:15;97432.25;;;9.79;100.00
43701;BME280;58809;47.984;7.964;2023-05-02T03:20:17;97438.19;;;9.81;100.00
43701;BME280;58809;47.984;7.964;2023-05-02T03:23:19;97446.09;;;9.90;100.00
43701;BME280;58809;47.984;7.964;2023-05-02T03:26:21;97438.34;;;9.88;100.00
43701;BME280;58809;47.984;7.964;2023-05-02T03:29:25;97443.28;;;9.91;100.00
43701;BME280;58809;47.984;7.964;2023-05-02T03:32:26;97450.03;;;9.94;100.00
43701;BME280;58809;47.984;7.964;2023-05-02T03:35:28;97457.63;;;9.97;100.00
43701;BME280;58809;47.984;7.964;2023-05-02T03:38:30;97452.34;;;9.97;100.00
43701;BME280;58809;47.984;7.964;2023-05-02T03:41:36;97461.25;;;9.96;100.00
43701;BME280;58809;47.984;7.964;2023-05-02T03:44:41;97471.22;;;9.86;100.00
43701;BME280;58809;47.984;7.964;2023-05-02T03:47:43;97470.75;;;9.82;100.00
43701;BME280;58809;47.984;7.964;2023-05-02T03:50:46;97482.13;;;9.74;100.00
43701;BME280;58809;47.984;7.964;2023-05-02T03:53:47;97480.66;;;9.72;100.00
43701;BME280;58809;47.984;7.964;2023-05-02T03:56:49;97484.75;;;9.91;100.00
43701;BME280;58809;47.984;7.964;2023-05-02T03:59:57;97491.34;;;9.95;100.00
43701;BME280;58809;47.984;7.964;2023-05-02T04:03:01;97503.22;;;9.99;100.00
43701;BME280;58809;47.984;7.964;2023-05-02T04:06:04;97503.56;;;9.96;100.00
43701;BME280;58809;47.984;7.964;2023-05-02T04:09:06;97514.50;;;9.93;100.00
43701;BME280;58809;47.984;7.964;2023-05-02T04:12:30;97519.09;;;9.99;100.00
43701;BME280;58809;47.984;7.964;2023-05-02T04:15:32;97520.72;;;10.00;100.00
43701;BME280;58809;47.984;7.964;2023-05-02T04:18:34;97524.69;;;10.04;100.00
43701;BME280;58809;47.984;7.964;2023-05-02T04:21:39;97523.03;;;10.11;100.00
43701;BME280;58809;47.984;7.964;2023-05-02T04:24:41;97528.31;;;10.11;100.00
43701;BME280;58809;47.984;7.964;2023-05-02T04:27:42;97532.59;;;10.12;100.00
43701;BME280;58809;47.984;7.964;2023-05-02T04:30:50;97527.66;;;10.09;100.00
43701;BME280;58809;47.984;7.964;2023-05-02T04:33:55;97531.78;;;10.12;100.00
43701;BME280;58809;47.984;7.964;2023-05-02T04:37:00;97538.41;;;10.08;100.00
43701;BME280;58809;47.984;7.964;2023-05-02T04:40:02;97531.50;;;9.98;100.00
43701;BME280;58809;47.984;7.964;2023-05-02T04:43:05;97534.31;;;9.89;100.00
43701;BME280;58809;47.984;7.964;2023-05-02T04:46:16;97545.22;;;9.86;100.00
43701;BME280;58809;47.984;7.964;2023-05-02T04:49:19;97547.88;;;9.86;100.00
43701;BME280;58809;47.984;7.964;2023-05-02T04:52:20;97543.72;;;9.91;100.00
43701;BME280;58809;47.984;7.964;2023-05-02T04:55:22;97546.22;;;9.85;100.00
43701;BME280;58809;47.984;7.964;2023-05-02T04:58:24;97541.94;;;9.83;100.00
43701;BME280;58809;47.984;7.964;2023-05-02T05:01:32;97554.97;;;9.85;100.00
43701;BME280;58809;47.984;7.964;2023-05-02T05:04:34;97546.72;;;9.80;100.00
43701;BME280;58809;47.984;7.964;2023-05-02T05:07:37;97548.19;;;9.82;100.00
43701;BME280;58809;47.984;7.964;2023-05-02T05:10:39;97547.69;;;9.87;100.00
43701;BME280;58809;47.984;7.964;2023-05-02T05:13:42;97557.44;;;9.87;100.00
43701;BME280;58809;47.984;7.964;2023-05-02T05:16:45;97565.56;;;9.77;100.00
43701;BME280;58809;47.984;7.964;2023-05-02T05:19:47;97566.72;;;9.82;100.00
43701;BME280;58809;47.984;7.964;2023-05-02T05:22:48;97571.16;;;9.90;100.00
43701;BME280;58809;47.984;7.964;2023-05-02T05:25:52;97578.22;;;10.06;100.00
43701;BME280;58809;47.984;7.964;2023-05-02T05:28:54;97584.00;;;10.10;100.00
43701;BME280;58809;47.984;7.964;2023-05-02T05:31:58;97586.47;;;10.19;100.00
43701;BME280;58809;47.984;7.964;2023-05-02T05:35:00;97591.25;;;10.24;100.00
43701;BME280;58809;47.984;7.964;2023-05-02T05:38:02;97590.09;;;10.27;100.00
43701;BME280;58809;47.984;7.964;2023-05-02T05:41:07;97614.03;;;10.25;100.00
43701;BME280;58809;47.984;7.964;2023-05-02T05:44:11;97618.34;;;10.18;100.00
43701;BME280;58809;47.984;7.964;2023-05-02T05:47:18;97615.22;;;10.23;100.00
43701;BME280;58809;47.984;7.964;2023-05-02T05:50:20;97616.19;;;10.30;100.00
43701;BME280;58809;47.984;7.964;2023-05-02T05:53:22;97618.19;;;10.44;100.00
43701;BME280;58809;47.984;7.964;2023-05-02T05:56:24;97621.88;;;10.74;100.00
43701;BME280;58809;47.984;7.964;2023-05-02T05:59:34;97617.88;;;11.10;100.00
43701;BME280;58809;47.984;7.964;2023-05-02T06:02:37;97620.88;;;11.38;100.00
43701;BME280;58809;47.984;7.964;2023-05-02T06:05:39;97614.75;;;11.38;100.00
43701;BME280;58809;47.984;7.964;2023-05-02T06:08:41;97620.81;;;11.23;100.00
43701;BME280;58809;47.984;7.964;2023-05-02T06:11:43;97625.47;;;11.21;100.00
43701;BME280;58809;47.984;7.964;2023-05-02T06:14:45;97625.50;;;11.13;100.00
43701;BME280;58809;47.984;7.964;2023-05-02T06:17:49;97636.25;;;11.11;100.00
43701;BME280;58809;47.984;7.964;2023-05-02T06:20:51;97636.34;;;11.26;100.00
43701;BME280;58809;47.984;7.964;2023-05-02T06:23:53;97635.25;;;11.44;100.00
43701;BME280;58809;47.984;7.964;2023-05-02T06:26:55;97637.44;;;11.63;100.00
43701;BME280;58809;47.984;7.964;2023-05-02T06:29:56;97641.47;;;11.74;100.00
43701;BME280;58809;47.984;7.964;2023-05-02T06:32:58;97644.53;;;11.86;100.00
43701;BME280;58809;47.984;7.964;2023-05-02T06:36:00;97642.88;;;11.93;100.00
43701;BME280;58809;47.984;7.964;2023-05-02T06:39:02;97640.50;;;11.98;100.00
43701;BME280;58809;47.984;7.964;2023-05-02T06:42:04;97638.06;;;12.11;100.00
43701;BME280;58809;47.984;7.964;2023-05-02T06:45:07;97640.72;;;12.26;100.00
43701;BME280;58809;47.984;7.964;2023-05-02T06:48:09;97648.81;;;12.33;100.00
43701;BME280;58809;47.984;7.964;2023-05-02T06:51:13;97643.41;;;12.41;100.00
43701;BME280;58809;47.984;7.964;2023-05-02T06:54:14;97646.44;;;12.53;97.65
43701;BME280;58809;47.984;7.964;2023-05-02T06:57:16;97654.31;;;12.46;94.12
43701;BME280;58809;47.984;7.964;2023-05-02T07:00:18;97661.22;;;12.32;90.87
43701;BME280;58809;47.984;7.964;2023-05-02T07:03:20;97656.91;;;12.17;89.39
43701;BME280;58809;47.984;7.964;2023-05-02T07:06:23;97665.34;;;12.20;87.77
43701;BME280;58809;47.984;7.964;2023-05-02T07:09:24;97660.56;;;12.16;86.79
43701;BME280;58809;47.984;7.964;2023-05-02T07:12:26;97661.81;;;12.05;86.24
43701;BME280;58809;47.984;7.964;2023-05-02T07:15:27;97654.59;;;11.99;86.49
43701;BME280;58809;47.984;7.964;2023-05-02T07:18:29;97657.88;;;12.01;85.98
43701;BME280;58809;47.984;7.964;2023-05-02T07:21:30;97655.44;;;12.14;85.79
43701;BME280;58809;47.984;7.964;2023-05-02T07:24:32;97663.00;;;12.40;84.69
43701;BME280;58809;47.984;7.964;2023-05-02T07:27:34;97660.53;;;12.68;82.79
43701;BME280;58809;47.984;7.964;2023-05-02T07:30:35;97659.53;;;12.84;80.82
43701;BME280;58809;47.984;7.964;2023-05-02T07:33:37;97658.59;;;13.07;79.58
43701;BME280;58809;47.984;7.964;2023-05-02T07:36:38;97650.38;;;13.38;78.68
43701;BME280;58809;47.984;7.964;2023-05-02T07:39:40;97652.44;;;13.58;78.57
43701;BME280;58809;47.984;7.964;2023-05-02T07:42:41;97658.59;;;13.80;78.20
43701;BME280;58809;47.984;7.964;2023-05-02T07:45:44;97653.91;;;13.82;76.04
43701;BME280;58809;47.984;7.964;2023-05-02T07:48:46;97661.91;;;14.10;75.28
43701;BME280;58809;47.984;7.964;2023-05-02T07:51:47;97659.97;;;14.54;73.91
43701;BME280;58809;47.984;7.964;2023-05-02T07:54:50;97667.78;;;14.27;73.81
43701;BME280;58809;47.984;7.964;2023-05-02T07:57:54;97674.34;;;14.03;74.33
43701;BME280;58809;47.984;7.964;2023-05-02T08:00:56;97678.00;;;14.23;73.46
43701;BME280;58809;47.984;7.964;2023-05-02T08:03:57;97677.56;;;14.20;72.06
43701;BME280;58809;47.984;7.964;2023-05-02T08:06:59;97673.06;;;14.20;72.48
43701;BME280;58809;47.984;7.964;2023-05-02T08:10:01;97671.19;;;14.42;71.90
43701;BME280;58809;47.984;7.964;2023-05-02T08:13:03;97678.28;;;14.92;70.61
43701;BME280;58809;47.984;7.964;2023-05-02T08:16:05;97669.91;;;15.01;69.18
43701;BME280;58809;47.984;7.964;2023-05-02T08:19:07;97674.84;;;15.05;69.67
43701;BME280;58809;47.984;7.964;2023-05-02T08:22:08;97676.38;;;15.27;68.74
43701;BME280;58809;47.984;7.964;2023-05-02T08:25:10;97678.06;;;15.35;67.81
43701;BME280;58809;47.984;7.964;2023-05-02T08:28:11;97682.13;;;15.24;66.95
43701;BME280;58809;47.984;7.964;2023-05-02T08:31:13;97684.78;;;14.82;66.98
43701;BME280;58809;47.984;7.964;2023-05-02T08:34:15;97686.22;;;14.57;67.39
43701;BME280;58809;47.984;7.964;2023-05-02T08:37:17;97694.16;;;14.72;67.13
43701;BME280;58809;47.984;7.964;2023-05-02T08:40:19;97686.88;;;14.94;66.07
43701;BME280;58809;47.984;7.964;2023-05-02T08:43:41;97696.75;;;15.00;65.42
43701;BME280;58809;47.984;7.964;2023-05-02T08:46:42;97692.06;;;15.02;65.74
43701;BME280;58809;47.984;7.964;2023-05-02T08:49:45;97689.09;;;15.25;65.13
43701;BME280;58809;47.984;7.964;2023-05-02T08:52:48;97694.22;;;15.82;63.80
43701;BME280;58809;47.984;7.964;2023-05-02T08:55:50;97698.16;;;16.19;63.11
43701;BME280;58809;47.984;7.964;2023-05-02T08:58:52;97696.09;;;16.54;62.13
43701;BME280;58809;47.984;7.964;2023-05-02T09:01:58;97699.16;;;16.65;61.76
43701;BME280;58809;47.984;7.964;2023-05-02T09:05:05;97705.34;;;16.85;60.80
43701;BME280;58809;47.984;7.964;2023-05-02T09:08:07;97711.06;;;17.02;60.59
43701;BME280;58809;47.984;7.964;2023-05-02T09:11:11;97690.72;;;16.88;59.87
43701;BME280;58809;47.984;7.964;2023-05-02T09:14:14;97714.53;;;17.09;59.87
43701;BME280;58809;47.984;7.964;2023-05-02T09:17:16;97705.41;;;17.30;59.18
43701;BME280;58809;47.984;7.964;2023-05-02T09:20:17;97708.84;;;16.92;59.04
43701;BME280;58809;47.984;7.964;2023-05-02T09:23:19;97704.09;;;16.61;59.85
43701;BME280;58809;47.984;7.964;2023-05-02T09:26:25;97707.81;;;16.53;59.97
43701;BME280;58809;47.984;7.964;2023-05-02T09:29:32;97718.69;;;16.52;60.13
43701;BME280;58809;47.984;7.964;2023-05-02T09:32:46;97705.13;;;16.80;60.14
43701;BME280;58809;47.984;7.964;2023-05-02T09:35:52;97714.66;;;17.35;59.51
43701;BME280;58809;47.984;7.964;2023-05-02T09:39:08;97714.44;;;17.81;58.24
43701;BME280;58809;47.984;7.964;2023-05-02T09:42:10;97708.59;;;17.98;57.28
43701;BME280;58809;47.984;7.964;2023-05-02T09:45:22;97709.88;;;17.88;56.89
43701;BME280;58809;47.984;7.964;2023-05-02T09:48:25;97704.50;;;17.50;57.42
43701;BME280;58809;47.984;7.964;2023-05-02T09:51:27;97705.72;;;17.54;57.96
43701;BME280;58809;47.984;7.964;2023-05-02T09:54:35;97697.06;;;17.59;57.64
43701;BME280;58809;47.984;7.964;2023-05-02T09:57:40;97703.44;;;17.58;58.03
43701;BME280;58809;47.984;7.964;2023-05-02T10:00:43;97706.00;;;17.78;58.02
43701;BME280;58809;47.984;7.964;2023-05-02T10:03:46;97709.88;;;17.88;57.43
43701;BME280;58809;47.984;7.964;2023-05-02T10:06:50;97702.50;;;17.77;57.21
43701;BME280;58809;47.984;7.964;2023-05-02T10:09:53;97707.47;;;17.74;57.42
43701;BME280;58809;47.984;7.964;2023-05-02T10:12:55;97709.13;;;17.29;57.98
43701;BME280;58809;47.984;7.964;2023-05-02T10:16:01;97710.25;;;16.82;58.60
43701;BME280;58809;47.984;7.964;2023-05-02T10:19:08;97704.72;;;16.57;59.48
43701;BME280;58809;47.984;7.964;2023-05-02T10:22:11;97704.50;;;16.71;59.67
43701;BME280;58809;47.984;7.964;2023-05-02T10:25:13;97706.00;;;17.39;59.12
43701;BME280;58809;47.984;7.964;2023-05-02T10:28:15;97701.28;;;18.37;57.57
43701;BME280;58809;47.984;7.964;2023-05-02T10:31:17;97708.31;;;18.38;56.31
43701;BME280;58809;47.984;7.964;2023-05-02T10:34:19;97693.94;;;18.57;54.91
43701;BME280;58809;47.984;7.964;2023-05-02T10:37:25;97687.84;;;18.69;53.93
43701;BME280;58809;47.984;7.964;2023-05-02T10:40:27;97692.19;;;18.88;53.74
43701;BME280;58809;47.984;7.964;2023-05-02T10:43:31;97689.56;;;19.55;51.93
43701;BME280;58809;47.984;7.964;2023-05-02T10:46:35;97682.78;;;20.13;50.56
43701;BME280;58809;47.984;7.964;2023-05-02T10:49:49;97684.56;;;20.55;50.31
43701;BME280;58809;47.984;7.964;2023-05-02T10:52:51;97669.16;;;20.50;50.13
43701;BME280;58809;47.984;7.964;2023-05-02T10:59:27;97683.28;;;19.80;49.96
43701;BME280;58809;47.984;7.964;2023-05-02T11:05:31;97680.94;;;18.79;52.39
43701;BME280;58809;47.984;7.964;2023-05-02T11:08:37;97684.25;;;18.56;52.69
43701;BME280;58809;47.984;7.964;2023-05-02T11:14:44;97674.66;;;18.17;53.55
43701;BME280;58809;47.984;7.964;2023-05-02T11:18:04;97679.75;;;18.00;53.63
43701;BME280;58809;47.984;7.964;2023-05-02T11:21:25;97674.41;;;18.25;53.23
43701;BME280;58809;47.984;7.964;2023-05-02T11:24:38;97680.78;;;18.74;52.30
43701;BME280;58809;47.984;7.964;2023-05-02T11:27:40;97675.88;;;18.90;51.97
43701;BME280;58809;47.984;7.964;2023-05-02T11:30:44;97674.47;;;18.43;52.40
43701;BME280;58809;47.984;7.964;2023-05-02T11:34:01;97677.09;;;18.25;52.57
43701;BME280;58809;47.984;7.964;2023-05-02T11:37:13;97672.19;;;18.65;52.19
43701;BME280;58809;47.984;7.964;2023-05-02T11:40:15;97665.25;;;19.01;51.24
43701;BME280;58809;47.984;7.964;2023-05-02T11:43:18;97669.88;;;20.04;49.25
43701;BME280;58809;47.984;7.964;2023-05-02T11:46:21;97671.38;;;20.53;48.28
43701;BME280;58809;47.984;7.964;2023-05-02T11:49:23;97673.81;;;20.43;48.48
43701;BME280;58809;47.984;7.964;2023-05-02T11:52:25;97671.25;;;19.83;48.33
43701;BME280;58809;47.984;7.964;2023-05-02T11:55:26;97675.03;;;18.96;49.02
43701;BME280;58809;47.984;7.964;2023-05-02T11:58:30;97658.81;;;18.40;49.82
43701;BME280;58809;47.984;7.964;2023-05-02T12:01:34;97672.72;;;18.31;51.39
43701;BME280;58809;47.984;7.964;2023-05-02T12:04:43;97675.06;;;18.20;51.84
43701;BME280;58809;47.984;7.964;2023-05-02T12:07:45;97670.63;;;18.07;52.78
43701;BME280;58809;47.984;7.964;2023-05-02T12:10:49;97680.91;;;18.36;51.83
43701;BME280;58809;47.984;7.964;2023-05-02T12:13:53;97662.75;;;18.63;51.52
43701;BME280;58809;47.984;7.964;2023-05-02T12:16:56;97664.38;;;18.64;51.56
43701;BME280;58809;47.984;7.964;2023-05-02T12:19:59;97668.00;;;18.95;51.23
43701;BME280;58809;47.984;7.964;2023-05-02T12:23:01;97671.44;;;19.02;50.43
43701;BME280;58809;47.984;7.964;2023-05-02T12:26:21;97663.56;;;18.63;51.08
43701;BME280;58809;47.984;7.964;2023-05-02T12:29:43;97659.94;;;19.13;49.97
43701;BME280;58809;47.984;7.964;2023-05-02T12:32:45;97660.03;;;19.25;48.87
43701;BME280;58809;47.984;7.964;2023-05-02T12:36:05;97659.66;;;19.52;49.25
43701;BME280;58809;47.984;7.964;2023-05-02T12:39:07;97656.84;;;19.47;48.85
43701;BME280;58809;47.984;7.964;2023-05-02T12:42:16;97662.22;;;19.47;48.31
43701;BME280;58809;47.984;7.964;2023-05-02T12:45:17;97659.94;;;19.32;48.53
43701;BME280;58809;47.984;7.964;2023-05-02T12:48:24;97653.56;;;19.45;48.86
43701;BME280;58809;47.984;7.964;2023-05-02T12:51:26;97661.03;;;19.42;48.41
43701;BME280;58809;47.984;7.964;2023-05-02T12:54:29;97665.06;;;19.33;48.43
43701;BME280;58809;47.984;7.964;2023-05-02T12:57:30;97654.34;;;19.64;48.21
43701;BME280;58809;47.984;7.964;2023-05-02T13:00:35;97655.72;;;19.73;47.96
43701;BME280;58809;47.984;7.964;2023-05-02T13:03:37;97646.66;;;19.67;48.15
43701;BME280;58809;47.984;7.964;2023-05-02T13:06:38;97662.63;;;19.80;47.36
43701;BME280;58809;47.984;7.964;2023-05-02T13:09:40;97645.31;;;19.76;47.36
43701;BME280;58809;47.984;7.964;2023-05-02T13:12:45;97655.50;;;19.37;47.64
43701;BME280;58809;47.984;7.964;2023-05-02T13:15:48;97652.59;;;19.09;47.73
43701;BME280;58809;47.984;7.964;2023-05-02T13:18:49;97652.47;;;19.34;47.04
43701;BME280;58809;47.984;7.964;2023-05-02T13:21:51;97658.16;;;19.07;46.12
43701;BME280;58809;47.984;7.964;2023-05-02T13:24:53;97641.09;;;19.20;46.11
43701;BME280;58809;47.984;7.964;2023-05-02T13:27:54;97648.66;;;19.41;45.63
43701;BME280;58809;47.984;7.964;2023-05-02T13:30:56;97651.47;;;19.47;45.50
43701;BME280;58809;47.984;7.964;2023-05-02T13:33:57;97652.13;;;19.60;45.01
43701;BME280;58809;47.984;7.964;2023-05-02T13:36:59;97647.22;;;19.88;44.75
43701;BME280;58809;47.984;7.964;2023-05-02T13:40:01;97646.19;;;20.12;44.27
43701;BME280;58809;47.984;7.964;2023-05-02T13:43:03;97633.25;;;20.33;44.20
43701;BME280;58809;47.984;7.964;2023-05-02T13:46:04;97639.56;;;20.27;44.26
43701;BME280;58809;47.984;7.964;2023-05-02T13:49:06;97629.88;;;20.73;43.84
43701;BME280;58809;47.984;7.964;2023-05-02T13:52:07;97632.59;;;21.25;43.46
43701;BME280;58809;47.984;7.964;2023-05-02T13:55:09;97623.75;;;21.42;42.85
43701;BME280;58809;47.984;7.964;2023-05-02T13:58:10;97625.59;;;21.53;42.64
43701;BME280;58809;47.984;7.964;2023-05-02T14:01:12;97637.19;;;21.70;42.61
43701;BME280;58809;47.984;7.964;2023-05-02T14:04:13;97628.03;;;22.00;41.60
43701;BME280;58809;47.984;7.964;2023-05-02T14:07:15;97630.81;;;21.19;41.56
43701;BME280;58809;47.984;7.964;2023-05-02T14:10:16;97633.56;;;21.07;42.48
43701;BME280;58809;47.984;7.964;2023-05-02T14:13:18;97624.22;;;21.50;41.51
43701;BME280;58809;47.984;7.964;2023-05-02T14:16:19;97637.91;;;20.96;42.21
43701;BME280;58809;47.984;7.964;2023-05-02T14:19:21;97632.19;;;19.68;44.25
43701;BME280;58809;47.984;7.964;2023-05-02T14:22:23;97632.97;;;19.57;44.74
43701;BME280;58809;47.984;7.964;2023-05-02T14:25:24;97628.56;;;20.16;43.88
43701;BME280;58809;47.984;7.964;2023-05-02T14:28:26;97645.03;;;20.08;43.38
43701;BME280;58809;47.984;7.964;2023-05-02T14:31:28;97638.56;;;19.86;43.67
43701;BME280;58809;47.984;7.964;2023-05-02T14:34:29;97656.16;;;20.47;40.81
43701;BME280;58809;47.984;7.964;2023-05-02T14:37:31;97635.72;;;20.82;40.93
43701;BME280;58809;47.984;7.964;2023-05-02T14:40:32;97630.41;;;20.99;40.39
43701;BME280;58809;47.984;7.964;2023-05-02T14:43:34;97628.59;;;20.52;41.38
43701;BME280;58809;47.984;7.964;2023-05-02T14:46:36;97631.72;;;20.84;41.00
43701;BME280;58809;47.984;7.964;2023-05-02T14:49:38;97628.16;;;21.60;39.96
43701;BME280;58809;47.984;7.964;2023-05-02T14:52:39;97633.19;;;22.36;38.87
43701;BME280;58809;47.984;7.964;2023-05-02T14:55:41;97631.75;;;22.28;38.43
43701;BME280;58809;47.984;7.964;2023-05-02T14:58:42;97637.19;;;22.50;38.19
43701;BME280;58809;47.984;7.964;2023-05-02T15:01:44;97618.78;;;22.64;38.60
43701;BME280;58809;47.984;7.964;2023-05-02T15:04:46;97630.03;;;23.00;38.99
43701;BME280;58809;47.984;7.964;2023-05-02T15:07:47;97632.25;;;23.47;38.03
43701;BME280;58809;47.984;7.964;2023-05-02T15:10:49;97635.66;;;23.37;38.96
43701;BME280;58809;47.984;7.964;2023-05-02T15:13:50;97635.13;;;23.90;38.21
43701;BME280;58809;47.984;7.964;2023-05-02T15:16:52;97634.19;;;24.06;38.23
43701;BME280;58809;47.984;7.964;2023-05-02T15:19:53;97648.19;;;23.98;38.70
43701;BME280;58809;47.984;7.964;2023-05-02T15:22:58;97655.88;;;23.84;38.94
43701;BME280;58809;47.984;7.964;2023-05-02T15:26:03;97645.84;;;23.08;38.89
43701;BME280;58809;47.984;7.964;2023-05-02T15:29:05;97642.41;;;22.96;39.17
43701;BME280;58809;47.984;7.964;2023-05-02T15:32:07;97648.28;;;22.93;39.29
43701;BME280;58809;47.984;7.964;2023-05-02T15:35:09;97646.59;;;22.47;39.81
43701;BME280;58809;47.984;7.964;2023-05-02T15:38:11;97664.13;;;22.67;40.17
43701;BME280;58809;47.984;7.964;2023-05-02T15:41:14;97647.22;;;22.21;40.07
43701;BME280;58809;47.984;7.964;2023-05-02T15:44:15;97648.53;;;22.52;39.92
43701;BME280;58809;47.984;7.964;2023-05-02T15:47:17;97653.91;;;22.69;39.72
43701;BME280;58809;47.984;7.964;2023-05-02T15:50:21;97668.09;;;23.42;39.13
43701;BME280;58809;47.984;7.964;2023-05-02T15:53:23;97647.88;;;23.01;40.00
43701;BME280;58809;47.984;7.964;2023-05-02T15:56:25;97658.59;;;22.96;40.37
43701;BME280;58809;47.984;7.964;2023-05-02T15:59:27;97663.31;;;23.50;40.22
43701;BME280;58809;47.984;7.964;2023-05-02T16:02:28;97662.00;;;24.01;40.07
43701;BME280;58809;47.984;7.964;2023-05-02T16:05:30;97662.22;;;24.27;39.62
43701;BME280;58809;47.984;7.964;2023-05-02T16:08:31;97664.41;;;23.98;40.37
43701;BME280;58809;47.984;7.964;2023-05-02T16:11:33;97660.25;;;25.55;38.34
43701;BME280;58809;47.984;7.964;2023-05-02T16:14:34;97656.06;;;28.27;34.90
43701;BME280;58809;47.984;7.964;2023-05-02T16:17:36;97657.13;;;30.66;31.83
43701;BME280;58809;47.984;7.964;2023-05-02T16:20:38;97670.72;;;32.04;30.92
43701;BME280;58809;47.984;7.964;2023-05-02T16:23:39;97677.75;;;32.42;29.46
43701;BME280;58809;47.984;7.964;2023-05-02T16:26:41;97668.03;;;30.52;30.00
43701;BME280;58809;47.984;7.964;2023-05-02T16:29:42;97662.66;;;30.47;30.83
43701;BME280;58809;47.984;7.964;2023-05-02T16:32:44;97667.09;;;31.17;30.13